Time;durP1;ratioP1;P1;durP2;ratioP2;P2;SDS_P1;SDS_P2;PMS_P1;PMS_P2;Temp;Humidity;BMP_temperature;BMP_pressure;BME280_temperature;BME280_humidity;BME280_pressure;Samples;Min_cycle;Max_cycle;Signal;HPM_P1;HPM_P2
2024/03/22 00:00:36;;;;;;;27.25;18.33;;;8.00;99.90;;;;;;5066091;28;20078;-71
2024/03/22 00:03:02;;;;;;;26.20;18.77;;;8.00;99.90;;;;;;5056942;28;20025;-71
2024/03/22 00:05:28;;;;;;;33.80;21.80;;;;;;;;;;5055224;28;20548;-71
2024/03/22 00:07:54;;;;;;;32.58;20.23;;;;;;;;;;5058494;28;20056;-71
2024/03/22 00:10:20;;;;;;;27.50;19.10;;;;;;;;;;5068059;28;20059;-71
2024/03/22 00:12:46;;;;;;;31.42;20.77;;;;;;;;;;5040553;28;20427;-71
2024/03/22 00:15:12;;;;;;;34.22;19.85;;;;;;;;;;5051443;28;20021;-71
2024/03/22 00:17:38;;;;;;;29.45;20.30;;;;;;;;;;5048806;28;20028;-71
2024/03/22 00:20:05;;;;;;;28.00;18.25;;;;;;;;;;5051127;28;20017;-71
2024/03/22 00:22:31;;;;;;;24.60;18.08;;;;;;;;;;5059596;28;20072;-72
2024/03/22 00:24:58;;;;;;;27.95;19.58;;;;;;;;;;5050998;28;20433;-72
2024/03/22 00:27:24;;;;;;;33.33;20.23;;;;;;;;;;5063524;28;20033;-71
2024/03/22 00:29:50;;;;;;;30.50;20.00;;;;;;;;;;5070762;28;20453;-72
2024/03/22 00:32:16;;;;;;;30.50;19.38;;;;;;;;;;5050877;28;20567;-72
2024/03/22 00:34:42;;;;;;;26.00;17.92;;;;;;;;;;5046161;28;20032;-72
2024/03/22 00:37:08;;;;;;;29.88;18.25;;;;;;;;;;5061575;28;20099;-71
2024/03/22 00:39:35;;;;;;;27.50;17.45;;;;;;;;;;5050914;28;20536;-71
2024/03/22 00:42:01;;;;;;;23.98;16.60;;;;;;;;;;5055182;28;20491;-72
2024/03/22 00:44:27;;;;;;;25.33;16.65;;;;;;;;;;5066418;28;20055;-72
2024/03/22 00:46:53;;;;;;;22.77;15.52;;;;;;;;;;5056920;28;20037;-71
2024/03/22 00:49:19;;;;;;;23.83;16.25;;;;;;;;;;5054047;28;20345;-71
2024/03/22 00:51:47;;;;;;;21.30;14.32;;;;;;;;;;5065083;28;20028;-72
2024/03/22 00:54:13;;;;;;;21.98;15.82;;;;;;;;;;5061939;28;20255;-72
2024/03/22 00:56:39;;;;;;;23.80;15.75;;;;;;;;;;5069847;28;20032;-72
2024/03/22 00:59:06;;;;;;;23.08;15.52;;;;;;;;;;5069579;28;20016;-72
2024/03/22 01:01:32;;;;;;;25.35;16.50;;;;;;;;;;5069159;28;20369;-72
2024/03/22 01:03:58;;;;;;;24.88;16.23;;;;;;;;;;5060251;28;20376;-72
2024/03/22 01:06:27;;;;;;;21.23;15.38;;;;;;;;;;5032721;28;20021;-72
2024/03/22 01:08:53;;;;;;;25.55;15.73;;;;;;;;;;5062784;28;20053;-72
2024/03/22 01:11:19;;;;;;;22.67;15.23;;;;;;;;;;5060275;28;20029;-72
2024/03/22 01:13:45;;;;;;;26.13;15.38;;;;;;;;;;5056460;28;20020;-71
2024/03/22 01:16:11;;;;;;;34.50;17.08;;;;;;;;;;5057273;28;20025;-72
2024/03/22 01:18:37;;;;;;;29.05;16.45;;;;;;;;;;5049320;28;20513;-72
2024/03/22 01:21:03;;;;;;;22.98;15.70;;;;;;;;;;5057716;28;20032;-72
2024/03/22 01:23:29;;;;;;;22.80;15.43;;;;;;;;;;5056329;28;20051;-71
2024/03/22 01:25:55;;;;;;;25.25;16.10;;;;;;;;;;5068767;28;20028;-71
2024/03/22 01:28:21;;;;;;;23.33;16.40;;;;;;;;;;5054340;28;20032;-72
2024/03/22 01:30:47;;;;;;;24.10;15.98;;;;;;;;;;5059066;28;20025;-71
2024/03/22 01:33:13;;;;;;;22.85;16.00;;;;;;;;;;5055511;28;20136;-71
2024/03/22 01:35:39;;;;;;;23.40;15.15;;;;;;;;;;5068551;28;20048;-71
2024/03/22 01:38:05;;;;;;;21.60;15.00;;;;;;;;;;5054850;28;20487;-72
2024/03/22 01:40:31;;;;;;;27.30;17.30;;;;;;;;;;5048502;28;20029;-72
2024/03/22 01:42:57;;;;;;;28.38;17.95;;;;;;;;;;5056188;28;20093;-72
2024/03/22 01:45:24;;;;;;;30.65;17.38;;;;;;;;;;5067117;28;20033;-72
2024/03/22 01:47:51;;;;;;;24.10;16.55;;;;;;;;;;5065144;28;20020;-72
2024/03/22 01:50:18;;;;;;;24.05;16.80;;;;;;;;;;5072318;28;20035;-71
2024/03/22 01:52:44;;;;;;;22.15;14.30;;;;;;;;;;5065373;28;20090;-72
2024/03/22 01:55:10;;;;;;;22.75;15.50;;;;;;;;;;5057768;28;20060;-72
2024/03/22 01:57:36;;;;;;;25.13;16.08;;;;;;;;;;5058438;28;20052;-72
2024/03/22 02:00:03;;;;;;;32.33;15.63;;;;;;;;;;5067587;28;20067;-72
2024/03/22 02:02:30;;;;;;;24.85;14.35;;;;;;;;;;5063036;28;20017;-73
2024/03/22 02:04:57;;;;;;;22.05;15.23;;;;;;;;;;5056953;28;20032;-73
2024/03/22 02:07:23;;;;;;;26.88;16.08;;;;;;;;;;5051597;28;20373;-73
2024/03/22 02:09:49;;;;;;;27.20;16.95;;;;;;;;;;5059249;28;20031;-73
2024/03/22 02:12:15;;;;;;;28.25;16.90;;;;;;;;;;5053071;28;20090;-74
2024/03/22 02:14:41;;;;;;;28.75;16.88;;;;;;;;;;5062869;28;20041;-73
2024/03/22 02:17:07;;;;;;;26.13;15.15;;;;;;;;;;5063949;28;20400;-73
2024/03/22 02:19:33;;;;;;;27.35;17.58;;;;;;;;;;5064264;28;20607;-72
2024/03/22 02:22:00;;;;;;;27.23;17.90;;;;;;;;;;5052920;28;20108;-73
2024/03/22 02:24:26;;;;;;;30.50;17.42;;;;;;;;;;5054904;28;20035;-73
2024/03/22 02:26:52;;;;;;;29.42;17.55;;;;;;;;;;5064470;28;20096;-73
2024/03/22 02:29:18;;;;;;;25.83;17.65;;;;;;;;;;5058723;28;20565;-73
2024/03/22 02:31:44;;;;;;;26.38;17.67;;;;;;;;;;5054771;28;20077;-73
2024/03/22 02:34:10;;;;;;;26.02;17.23;;;;;;;;;;5062190;28;20102;-73
2024/03/22 02:36:36;;;;;;;34.17;19.70;;;;;;;;;;5062175;28;20515;-73
2024/03/22 02:39:02;;;;;;;35.13;21.92;;;;;;;;;;5044591;28;20025;-73
2024/03/22 02:41:28;;;;;;;31.38;18.73;;;;;;;;;;5054739;28;20021;-72
2024/03/22 02:43:54;;;;;;;28.27;19.73;;;;;;;;;;5067074;28;20498;-73
2024/03/22 02:46:23;;;;;;;32.63;19.50;;;;;;;;;;5058839;28;20539;-73
2024/03/22 02:48:53;;;;;;;33.10;19.83;;;;;;;;;;5054305;28;20418;-73
2024/03/22 02:51:18;;;;;;;38.03;22.52;;;;;;;;;;5065123;28;20059;-73
2024/03/22 02:53:44;;;;;;;33.85;20.98;;;;;;;;;;5065107;28;20052;-73
2024/03/22 02:56:11;;;;;;;31.88;20.67;;;;;;;;;;5052765;28;20032;-73
2024/03/22 02:58:37;;;;;;;34.65;20.15;;;;;;;;;;5054111;28;20544;-74
2024/03/22 03:01:03;;;;;;;28.40;17.13;;;;;;;;;;5062553;28;20427;-72
2024/03/22 03:03:30;;;;;;;29.60;20.13;;;;;;;;;;5060838;28;20074;-73
2024/03/22 03:05:58;;;;;;;30.67;18.40;;;;;;;;;;5054722;28;20071;-73
2024/03/22 03:08:25;;;;;;;27.40;18.00;;;;;;;;;;5008524;28;20049;-73
2024/03/22 03:10:52;;;;;;;29.67;17.60;;;;;;;;;;5059682;28;20028;-73
2024/03/22 03:13:19;;;;;;;26.95;17.50;;;;;;;;;;5058002;28;20029;-71
2024/03/22 03:15:46;;;;;;;27.60;17.38;;;;;;;;;;5056550;28;20020;-73
2024/03/22 03:18:14;;;;;;;32.78;19.10;;;;;;;;;;5066917;28;20025;-73
2024/03/22 03:20:41;;;;;;;28.95;18.83;;;;;;;;;;5064276;28;20025;-73
2024/03/22 03:23:08;;;;;;;27.48;18.02;;;;;;;;;;5058748;28;20021;-73
2024/03/22 03:25:35;;;;;;;27.50;17.45;;;;;;;;;;5053418;28;20029;-73
2024/03/22 03:28:02;;;;;;;26.45;16.50;;;;;;;;;;5053135;28;20073;-73
2024/03/22 03:30:29;;;;;;;24.20;15.13;;;;;;;;;;5053131;28;20029;-73
2024/03/22 03:32:56;;;;;;;21.25;15.18;;;;;;;;;;5059120;28;20053;-73
2024/03/22 03:35:25;;;;;;;21.67;14.48;;;;;;;;;;5061949;28;20025;-73
2024/03/22 03:37:52;;;;;;;20.88;14.77;;;;;;;;;;5063815;28;20499;-73
2024/03/22 03:40:21;;;;;;;21.13;14.40;;;;;;;;;;5052649;28;20029;-73
2024/03/22 03:42:50;;;;;;;23.67;15.38;;;;;;;;;;5046573;28;20044;-73
2024/03/22 03:45:19;;;;;;;24.67;15.82;;;;;;;;;;5062936;28;20606;-73
2024/03/22 03:47:49;;;;;;;26.77;16.05;;;;;;;;;;5065119;28;20062;-73
2024/03/22 03:50:17;;;;;;;24.93;15.83;;;;;;;;;;5039332;28;20029;-73
2024/03/22 03:52:43;;;;;;;20.90;14.32;;;;;;;;;;5053221;28;20028;-73
2024/03/22 03:55:13;;;;;;;25.80;15.38;;;;;;;;;;5057643;28;20032;-73
2024/03/22 03:57:42;;;;;;;26.93;15.50;;;;;;;;;;5057162;28;20430;-73
2024/03/22 04:00:10;;;;;;;23.23;16.33;;;;;;;;;;5066309;28;20063;-73
2024/03/22 04:02:38;;;;;;;25.42;16.50;;;;;;;;;;5062006;28;20024;-73
2024/03/22 04:05:07;;;;;;;31.30;17.02;;;;;;;;;;5058661;28;20065;-73
2024/03/22 04:07:36;;;;;;;23.55;15.63;;;;;;;;;;5051139;28;20025;-73
2024/03/22 04:10:03;;;;;;;24.45;16.05;;;;;;;;;;5045556;28;20032;-73
2024/03/22 04:12:31;;;;;;;25.38;16.45;;;;;;;;;;5052507;28;20028;-73
2024/03/22 04:15:01;;;;;;;23.13;16.20;;;;;;;;;;5051828;28;20060;-73
2024/03/22 04:17:32;;;;;;;27.65;17.17;;;;;;;;;;5065624;28;20017;-73
2024/03/22 04:20:00;;;;;;;34.50;17.35;;;;;;;;;;5060742;28;20024;-73
2024/03/22 04:22:29;;;;;;;27.45;16.67;;;;;;;;;;5065048;28;20062;-73
2024/03/22 04:24:56;;;;;;;28.13;17.23;;;;;;;;;;5068302;28;20054;-73
2024/03/22 04:27:23;;;;;;;28.95;16.90;;;;;;;;;;5059682;28;20025;-73
2024/03/22 04:29:50;;;;;;;32.53;17.73;;;;;;;;;;5058600;28;20020;-73
2024/03/22 04:32:17;;;;;;;25.50;16.52;;;;;;;;;;5030412;28;20895;-71
2024/03/22 04:34:44;;;;;;;30.27;17.38;;;;;;;;;;5048947;28;20028;-71
2024/03/22 04:37:12;;;;;;;24.77;17.08;;;;;;;;;;5033002;28;20087;-70
2024/03/22 04:39:39;;;;;;;30.23;17.02;;;;;;;;;;5035860;28;20074;-70
2024/03/22 04:42:06;;;;;;;29.00;16.58;;;;;;;;;;5033998;28;20021;-70
2024/03/22 04:44:33;;;;;;;22.70;16.20;;;;;;;;;;5038453;28;20095;-71
2024/03/22 04:47:00;;;;;;;27.85;18.13;;;;;;;;;;5032915;28;20026;-71
2024/03/22 04:49:26;;;;;;;28.48;18.35;;;;;;;;;;5032571;28;20467;-71
2024/03/22 04:51:52;;;;;;;25.48;16.20;;;6.30;99.90;;;;;;5031924;28;20366;-71
2024/03/22 04:54:18;;;;;;;25.80;17.27;;;6.30;99.90;;;;;;5039513;28;20045;-71
2024/03/22 04:56:44;;;;;;;25.02;15.80;;;;;;;;;;5031974;28;20025;-71
2024/03/22 04:59:10;;;;;;;25.13;16.67;;;;;;;;;;5023016;28;20090;-71
2024/03/22 05:01:37;;;;;;;23.67;16.20;;;;;;;;;;5041427;28;20076;-71
2024/03/22 05:04:04;;;;;;;25.95;15.68;;;;;;;;;;5030678;28;20025;-71
2024/03/22 05:06:29;;;;;;;24.65;15.57;;;6.40;99.90;;;;;;5022171;28;20030;-71
2024/03/22 05:08:56;;;;;;;23.20;15.57;;;6.50;99.90;;;;;;5030796;28;20124;-71
2024/03/22 05:11:22;;;;;;;22.27;14.70;;;6.50;99.90;;;;;;5036816;28;20026;-71
2024/03/22 05:13:48;;;;;;;27.05;17.67;;;6.50;99.90;;;;;;5034162;28;20029;-71
2024/03/22 05:16:13;;;;;;;29.10;19.00;;;6.50;99.90;;;;;;5045609;28;20032;-72
2024/03/22 05:18:39;;;;;;;29.75;19.35;;;6.60;99.90;;;;;;4998291;28;20060;-71
2024/03/22 05:21:05;;;;;;;30.45;18.55;;;6.60;99.90;;;;;;5041554;28;20043;-71
2024/03/22 05:23:31;;;;;;;29.67;18.05;;;6.60;99.90;;;;;;5035167;28;20426;-71
2024/03/22 05:25:57;;;;;;;28.70;19.27;;;6.60;99.90;;;;;;5027245;28;20079;-71
2024/03/22 05:28:23;;;;;;;25.92;18.27;;;6.60;99.90;;;;;;5042288;28;20029;-71
2024/03/22 05:30:48;;;;;;;28.23;18.65;;;6.60;99.90;;;;;;5038851;28;20166;-72
2024/03/22 05:33:14;;;;;;;38.25;23.15;;;6.60;99.90;;;;;;5058010;28;20052;-72
2024/03/22 05:35:41;;;;;;;37.88;22.48;;;6.60;99.90;;;;;;5061578;28;20028;-72
2024/03/22 05:38:07;;;;;;;31.58;20.45;;;6.70;99.90;;;;;;5055397;28;20036;-70
2024/03/22 05:40:35;;;;;;;28.98;19.85;;;6.80;99.90;;;;;;5041697;28;20025;-71
2024/03/22 05:43:01;;;;;;;32.40;18.70;;;6.90;99.90;;;;;;5050217;28;20021;-71
2024/03/22 05:45:26;;;;;;;27.42;18.92;;;7.00;99.90;;;;;;5068433;28;20508;-72
2024/03/22 05:47:52;;;;;;;27.90;17.65;;;7.10;99.90;;;;;;5053309;28;20032;-72
2024/03/22 05:50:20;;;;;;;27.85;17.48;;;7.10;99.90;;;;;;5056425;28;20183;-71
2024/03/22 05:52:46;;;;;;;24.42;16.65;;;7.10;99.90;;;;;;5051067;28;20334;-69
2024/03/22 05:55:11;;;;;;;26.70;16.92;;;7.20;99.90;;;;;;5062690;28;20108;-71
2024/03/22 05:57:37;;;;;;;23.75;17.00;;;7.20;99.90;;;;;;5060554;28;20021;-70
2024/03/22 06:00:03;;;;;;;24.40;16.67;;;7.20;99.90;;;;;;5059572;28;20484;-71
2024/03/22 06:02:30;;;;;;;25.42;16.23;;;7.20;99.90;;;;;;5062808;28;20051;-71
2024/03/22 06:04:56;;;;;;;24.83;16.38;;;7.20;99.90;;;;;;5068777;28;20020;-71
2024/03/22 06:07:21;;;;;;;20.83;15.45;;;7.20;99.90;;;;;;5038091;28;20070;-71
2024/03/22 06:09:47;;;;;;;23.35;16.25;;;7.20;99.90;;;;;;5045855;28;20041;-72
2024/03/22 06:12:13;;;;;;;25.92;16.38;;;7.20;99.90;;;;;;5061250;28;20040;-71
2024/03/22 06:14:43;;;;;;;20.15;15.10;;;7.20;99.90;;;;;;5060787;28;20025;-70
2024/03/22 06:17:08;;;;;;;24.23;16.65;;;7.20;99.90;;;;;;5042779;28;20456;-71
2024/03/22 06:19:35;;;;;;;25.17;15.65;;;7.20;99.90;;;;;;5059636;28;20049;-71
2024/03/22 06:22:01;;;;;;;22.00;15.55;;;7.20;99.90;;;;;;5060749;28;20120;-71
2024/03/22 06:24:27;;;;;;;25.30;17.95;;;7.30;99.90;;;;;;5045869;28;20024;-71
2024/03/22 06:26:53;;;;;;;25.45;17.95;;;7.30;99.90;;;;;;5064190;28;20021;-72
2024/03/22 06:29:18;;;;;;;24.05;16.75;;;7.30;99.90;;;;;;5059178;28;20049;-72
2024/03/22 06:31:44;;;;;;;22.83;15.27;;;7.40;99.90;;;;;;5055415;28;20488;-73
2024/03/22 06:34:10;;;;;;;25.77;14.73;;;7.50;99.90;;;;;;5061721;28;20399;-73
2024/03/22 06:36:35;;;;;;;25.63;14.55;;;7.60;99.90;;;;;;5065799;28;20436;-73
2024/03/22 06:39:03;;;;;;;21.50;15.27;;;7.70;99.90;;;;;;5062007;28;20040;-72
2024/03/22 06:41:29;;;;;;;22.98;16.38;;;7.80;99.90;;;;;;5061430;28;20058;-72
2024/03/22 06:43:54;;;;;;;22.90;15.95;;;7.80;99.90;;;;;;5045228;28;20033;-72
2024/03/22 06:46:20;;;;;;;29.15;15.82;;;8.00;99.90;;;;;;5040616;28;20523;-72
2024/03/22 06:48:46;;;;;;;25.98;16.10;;;8.10;99.90;;;;;;5040127;28;20045;-72
2024/03/22 06:51:12;;;;;;;24.35;15.43;;;8.20;99.90;;;;;;5042384;28;20509;-73
2024/03/22 06:53:38;;;;;;;24.73;15.43;;;8.30;99.90;;;;;;5042222;28;20032;-73
2024/03/22 06:56:08;;;;;;;19.85;13.88;;;8.40;99.90;;;;;;5047245;28;20036;-72
2024/03/22 06:58:35;;;;;;;19.60;13.77;;;8.50;99.90;;;;;;5043797;28;20057;-73
2024/03/22 07:01:00;;;;;;;20.67;13.55;;;8.60;99.90;;;;;;5038516;28;20029;-72
2024/03/22 07:03:26;;;;;;;27.58;15.38;;;8.70;99.90;;;;;;5045590;28;20041;-72
2024/03/22 07:05:53;;;;;;;24.40;15.98;;;8.80;99.90;;;;;;5045178;28;20108;-72
2024/03/22 07:08:21;;;;;;;20.00;14.25;;;;;;;;;;5049081;28;20158;-74
2024/03/22 07:10:47;;;;;;;26.75;14.93;;;;;;;;;;5043507;28;20053;-74
2024/03/22 07:13:13;;;;;;;20.23;14.23;;;;;;;;;;5039375;28;20106;-75
2024/03/22 07:15:41;;;;;;;16.70;13.70;;;;;;;;;;5049052;28;20073;-74
2024/03/22 07:18:07;;;;;;;19.00;13.65;;;;;;;;;;5057961;28;20480;-75
2024/03/22 07:20:33;;;;;;;26.52;14.73;;;;;;;;;;5039288;28;20032;-75
2024/03/22 07:22:59;;;;;;;18.67;12.82;;;;;;;;;;5058521;28;20460;-74
2024/03/22 07:25:25;;;;;;;20.52;13.77;;;;;;;;;;5064387;28;20100;-75
2024/03/22 07:27:51;;;;;;;20.05;13.13;;;;;;;;;;5063990;28;20033;-75
2024/03/22 07:30:17;;;;;;;19.48;13.40;;;;;;;;;;5053817;28;20021;-74
2024/03/22 07:32:43;;;;;;;20.48;13.82;;;;;;;;;;5062259;28;20048;-74
2024/03/22 07:35:09;;;;;;;17.42;12.50;;;;;;;;;;5063015;28;20104;-74
2024/03/22 07:37:35;;;;;;;17.95;13.18;;;;;;;;;;5061282;28;20108;-74
2024/03/22 07:40:02;;;;;;;22.40;13.27;;;;;;;;;;5050588;28;20093;-73
2024/03/22 07:42:28;;;;;;;19.58;13.32;;;10.50;99.90;;;;;;5054930;28;20055;-75
2024/03/22 07:44:53;;;;;;;16.48;12.15;;;10.50;99.90;;;;;;5059240;28;20029;-75
2024/03/22 07:47:19;;;;;;;23.48;12.65;;;10.70;99.90;;;;;;5050305;28;20036;-75
2024/03/22 07:49:45;;;;;;;17.45;12.88;;;10.80;99.90;;;;;;5055574;28;20028;-75
2024/03/22 07:52:11;;;;;;;17.80;12.73;;;10.90;99.90;;;;;;5064775;28;20389;-74
2024/03/22 07:54:37;;;;;;;19.42;12.52;;;10.90;99.90;;;;;;5052447;28;20507;-74
2024/03/22 07:57:03;;;;;;;21.60;12.60;;;11.00;99.90;;;;;;5057441;28;20435;-74
2024/03/22 07:59:29;;;;;;;22.73;13.55;;;11.10;99.90;;;;;;5055657;28;20036;-73
2024/03/22 08:01:57;;;;;;;24.42;12.88;;;11.20;99.90;;;;;;5062379;28;20025;-73
2024/03/22 08:04:22;;;;;;;25.35;13.50;;;11.30;99.90;;;;;;5058471;28;20112;-74
2024/03/22 08:06:50;;;;;;;22.13;13.30;;;11.40;99.90;;;;;;5059148;28;20438;-74
2024/03/22 08:09:19;;;;;;;22.35;13.32;;;11.50;99.90;;;;;;5044290;28;20021;-73
2024/03/22 08:11:45;;;;;;;20.73;13.05;;;11.60;99.90;;;;;;5050919;28;20103;-75
2024/03/22 08:14:11;;;;;;;23.83;13.90;;;11.70;99.90;;;;;;5050730;28;20116;-74
2024/03/22 08:16:37;;;;;;;17.95;12.00;;;11.90;99.90;;;;;;5058527;28;20036;-74
2024/03/22 08:19:03;;;;;;;15.70;10.75;;;12.00;99.90;;;;;;5063952;28;20395;-74
2024/03/22 08:21:29;;;;;;;17.05;11.93;;;;;;;;;;5058090;28;20035;-74
2024/03/22 08:23:56;;;;;;;17.17;11.60;;;;;;;;;;5046963;28;20072;-75
2024/03/22 08:26:22;;;;;;;19.60;12.70;;;;;;;;;;5067083;28;20515;-75
2024/03/22 08:28:50;;;;;;;15.77;11.05;;;;;;;;;;5063544;28;20029;-76
2024/03/22 08:31:21;;;;;;;16.48;11.05;;;13.70;99.90;;;;;;5052015;28;20248;-76
2024/03/22 08:33:47;;;;;;;17.92;11.38;;;13.70;99.90;;;;;;5034289;28;20103;-76
2024/03/22 08:36:14;;;;;;;14.52;10.55;;;13.90;99.90;;;;;;5027213;28;20183;-74
2024/03/22 08:38:39;;;;;;;20.95;11.27;;;14.00;99.90;;;;;;5053780;28;20025;-75
2024/03/22 08:41:05;;;;;;;18.73;11.02;;;14.20;99.90;;;;;;5049229;28;20112;-81
2024/03/22 08:46:12;;;;;;;12.23;9.90;;;14.80;99.90;;;;;;5026309;28;20100;-68
2024/03/22 08:48:37;;;;;;;17.40;10.02;;;15.00;99.90;;;;;;5028955;28;20408;-67
2024/03/22 08:51:03;;;;;;;18.20;9.95;;;15.30;99.90;;;;;;5021575;28;20124;-67
2024/03/22 08:53:29;;;;;;;14.38;8.85;;;15.60;99.90;;;;;;5030727;28;20095;-67
2024/03/22 08:55:54;;;;;;;13.70;8.68;;;15.70;99.90;;;;;;5030005;28;20057;-67
2024/03/22 08:58:20;;;;;;;12.75;8.50;;;15.70;99.90;;;;;;5027493;28;20139;-67
2024/03/22 09:00:46;;;;;;;16.95;9.23;;;15.90;99.90;;;;;;5030216;28;20018;-67
2024/03/22 09:03:11;;;;;;;15.00;9.10;;;16.00;99.90;;;;;;5037500;28;20447;-67
2024/03/22 09:05:37;;;;;;;13.63;8.98;;;16.10;99.90;;;;;;5030538;28;20033;-67
2024/03/22 09:08:03;;;;;;;16.70;9.73;;;16.10;99.90;;;;;;5029562;28;20029;-67
2024/03/22 09:10:29;;;;;;;15.27;9.75;;;16.10;99.90;;;;;;5030133;28;20029;-67
2024/03/22 09:12:56;;;;;;;18.73;9.05;;;16.10;99.90;;;;;;5030880;28;20053;-67
2024/03/22 09:15:21;;;;;;;13.65;8.48;;;16.10;99.90;;;;;;5029807;28;20132;-67
2024/03/22 09:17:47;;;;;;;16.48;8.45;;;16.10;99.90;;;;;;5030708;28;20100;-67
2024/03/22 09:20:13;;;;;;;20.98;9.88;;;16.30;99.90;;;;;;5029428;28;20025;-68
2024/03/22 09:22:39;;;;;;;14.25;9.20;;;16.40;99.90;;;;;;5029892;28;20041;-68
2024/03/22 09:25:05;;;;;;;15.90;9.30;;;16.40;99.90;;;;;;5029163;28;20406;-68
2024/03/22 09:27:32;;;;;;;10.68;7.40;;;16.40;99.90;;;;;;5030222;28;20463;-67
2024/03/22 09:29:58;;;;;;;12.50;7.95;;;16.30;99.90;;;;;;5030011;28;20033;-69
2024/03/22 09:32:24;;;;;;;12.80;8.40;;;16.40;99.90;;;;;;5028991;28;20044;-67
2024/03/22 09:34:50;;;;;;;20.88;9.88;;;16.40;99.90;;;;;;5029658;28;20408;-67
2024/03/22 09:37:15;;;;;;;14.10;8.27;;;16.60;99.90;;;;;;5030882;28;20044;-67
2024/03/22 09:39:41;;;;;;;15.02;8.88;;;16.80;99.90;;;;;;5029720;28;20385;-68
2024/03/22 09:42:08;;;;;;;14.07;8.32;;;16.90;99.90;;;;;;5011022;28;20030;-67
2024/03/22 09:44:34;;;;;;;17.33;8.02;;;16.90;99.90;;;;;;5011906;28;20055;-67
2024/03/22 09:47:00;;;;;;;14.93;8.50;;;17.10;99.90;;;;;;5029615;28;20033;-67
2024/03/22 09:49:26;;;;;;;18.52;8.82;;;17.30;99.90;;;;;;5034024;28;20409;-67
2024/03/22 09:51:52;;;;;;;19.15;8.43;;;17.40;99.90;;;;;;5033406;28;20382;-67
2024/03/22 09:54:18;;;;;;;11.38;7.43;;;17.50;99.90;;;;;;5033512;28;20039;-67
2024/03/22 09:56:47;;;;;;;11.15;6.22;;;17.70;99.90;;;;;;5031602;28;20469;-68
2024/03/22 09:59:13;;;;;;;8.90;6.60;;;17.90;99.90;;;;;;5033431;28;20397;-68
2024/03/22 10:01:41;;;;;;;7.78;5.63;;;18.10;98.90;;;;;;5033476;28;20028;-67
2024/03/22 10:04:08;;;;;;;11.73;6.60;;;18.40;98.80;;;;;;5040797;28;20116;-67
2024/03/22 10:06:33;;;;;;;15.20;5.90;;;18.60;98.70;;;;;;5032485;28;20474;-67
2024/03/22 10:08:59;;;;;;;7.75;5.88;;;18.90;97.90;;;;;;5025177;28;20057;-67
2024/03/22 10:11:26;;;;;;;12.35;5.63;;;19.20;96.90;;;;;;5033204;28;20029;-67
2024/03/22 10:13:52;;;;;;;20.30;6.55;;;19.50;99.90;;;;;;5035042;28;20036;-67
2024/03/22 10:16:18;;;;;;;8.55;5.07;;;19.80;99.90;;;;;;5032740;28;20033;-67
2024/03/22 10:18:44;;;;;;;6.35;4.10;;;20.00;99.90;;;;;;5033838;28;20034;-67
2024/03/22 10:21:09;;;;;;;8.30;4.32;;;20.10;99.90;;;;;;5032678;28;20433;-67
2024/03/22 10:23:35;;;;;;;8.88;4.18;;;20.20;99.90;;;;;;5033696;28;20036;-67
2024/03/22 10:26:00;;;;;;;5.95;4.07;;;20.10;99.90;;;;;;5032496;28;20044;-67
2024/03/22 10:28:27;;;;;;;8.90;3.97;;;;;;;;;;5033926;28;20087;-67
2024/03/22 10:30:53;;;;;;;8.95;3.45;;;;;;;;;;5032875;28;20021;-67
2024/03/22 10:33:19;;;;;;;6.40;3.60;;;;;;;;;;5032387;28;20029;-67
2024/03/22 10:35:45;;;;;;;5.88;2.95;;;;;;;;;;5032378;28;20037;-69
2024/03/22 10:38:13;;;;;;;6.95;3.65;;;;;;;;;;5011391;28;20038;-66
2024/03/22 10:40:40;;;;;;;7.22;3.80;;;;;;;;;;5028741;28;20040;-68
2024/03/22 10:43:06;;;;;;;8.45;3.42;;;;;;;;;;5032920;28;20450;-68
2024/03/22 10:45:33;;;;;;;4.88;3.15;;;;;;;;;;5032421;28;20065;-68
2024/03/22 10:48:03;;;;;;;5.55;2.97;;;;;;;;;;5032475;28;20017;-68
2024/03/22 10:50:29;;;;;;;5.50;2.47;;;;;;;;;;5032846;28;20028;-68
2024/03/22 10:53:06;;;;;;;6.82;3.75;;;;;;;;;;5033100;28;20037;-68
2024/03/22 10:55:37;;;;;;;4.05;3.17;;;;;;;;;;5032499;28;20028;-69
2024/03/22 10:58:03;;;;;;;7.68;3.42;;;;;;;;;;5030238;28;20446;-68
2024/03/22 11:00:33;;;;;;;5.57;3.40;;;;;;;;;;5032430;28;20025;-68
2024/03/22 11:02:59;;;;;;;6.95;4.07;;;;;;;;;;5038102;28;20025;-68
2024/03/22 11:05:26;;;;;;;10.10;4.03;;;;;;;;;;5034533;28;20025;-68
2024/03/22 11:07:59;;;;;;;7.53;3.78;;;;;;;;;;5032639;28;20048;-68
2024/03/22 11:10:33;;;;;;;6.00;3.78;;;;;;;;;;5032430;28;20022;-68
2024/03/22 11:13:03;;;;;;;7.50;3.85;;;;;;;;;;5032131;28;20475;-68
2024/03/22 11:15:29;;;;;;;7.03;3.17;;;;;;;;;;5033306;28;20370;-68
2024/03/22 11:17:55;;;;;;;6.10;3.47;;;;;;;;;;5032892;28;20024;-68
2024/03/22 11:20:21;;;;;;;7.70;3.30;;;;;;;;;;5031470;28;20068;-68
2024/03/22 11:22:47;;;;;;;7.00;3.15;;;;;;;;;;5031880;28;20056;-68
2024/03/22 11:25:13;;;;;;;4.50;2.80;;;;;;;;;;5031308;28;20143;-68
2024/03/22 11:27:39;;;;;;;12.93;4.18;;;20.90;86.90;;;;;;5032969;28;20022;-68
2024/03/22 11:30:05;;;;;;;6.47;3.05;;;20.80;86.80;;;;;;5031163;28;20455;-68
2024/03/22 11:32:31;;;;;;;9.32;3.45;;;20.70;87.50;;;;;;5028398;28;20095;-68
2024/03/22 11:34:57;;;;;;;7.82;3.58;;;20.80;87.50;;;;;;5032554;28;20474;-67
2024/03/22 11:37:23;;;;;;;5.57;3.28;;;20.90;87.70;;;;;;5030774;28;20046;-69
2024/03/22 11:39:49;;;;;;;6.43;3.30;;;21.30;86.70;;;;;;5027327;28;20382;-69
2024/03/22 11:42:16;;;;;;;5.75;3.25;;;21.60;85.50;;;;;;5025553;28;20033;-69
2024/03/22 11:44:42;;;;;;;6.45;3.28;;;21.60;85.30;;;;;;5031346;28;20053;-68
2024/03/22 11:47:08;;;;;;;8.05;4.25;;;;;;;;;;5029150;28;20390;-68
2024/03/22 11:49:35;;;;;;;4.95;3.55;;;22.30;84.20;;;;;;5030137;28;20037;-67
2024/03/22 11:52:01;;;;;;;7.15;4.03;;;;;;;;;;5028185;28;20414;-68
2024/03/22 11:54:27;;;;;;;5.55;3.70;;;;;;;;;;5029368;28;20040;-68
2024/03/22 11:56:57;;;;;;;8.40;4.10;;;;;;;;;;5028939;28;20124;-68
2024/03/22 11:59:23;;;;;;;;;;;;;;;;;;5023756;28;20028;-68
2024/03/22 12:01:49;;;;;;;6.70;3.42;;;;;;;;;;5030766;28;19905;-67
2024/03/22 12:04:15;;;;;;;7.40;3.65;;;;;;;;;;5031793;28;20033;-68
2024/03/22 12:06:42;;;;;;;8.48;3.88;;;;;;;;;;5030887;28;20076;-68
2024/03/22 12:09:11;;;;;;;9.63;4.00;;;;;;;;;;5029842;28;20021;-68
2024/03/22 12:11:37;;;;;;;6.65;3.47;;;;;;;;;;5011377;28;20386;-68
2024/03/22 12:14:03;;;;;;;7.07;3.78;;;;;;;;;;5031138;28;20025;-68
2024/03/22 12:16:29;;;;;;;7.78;3.42;;;;;;;;;;5030837;28;20104;-74
2024/03/22 12:18:55;;;;;;;7.20;3.67;;;;;;;;;;5031066;28;20030;-74
2024/03/22 12:21:21;;;;;;;5.32;3.58;;;;;;;;;;5029356;28;20473;-71
2024/03/22 12:23:47;;;;;;;6.40;3.28;;;;;;;;;;5030814;28;20109;-74
2024/03/22 12:26:13;;;;;;;29.58;4.50;;;;;;;;;;5023412;28;20132;-67
2024/03/22 12:28:39;;;;;;;7.10;3.40;;;;;;;;;;5029849;28;20374;-68
2024/03/22 12:31:05;;;;;;;6.68;3.53;;;;;;;;;;5030825;28;20029;-71
2024/03/22 12:33:31;;;;;;;4.82;2.70;;;;;;;;;;5030647;28;20060;-69
2024/03/22 12:35:57;;;;;;;5.28;3.17;;;;;;;;;;5018339;28;20025;-68
2024/03/22 12:38:23;;;;;;;8.88;3.08;;;;;;;;;;5027176;28;20057;-68
2024/03/22 12:40:50;;;;;;;14.80;2.92;;;;;;;;;;5021416;28;20079;-68
2024/03/22 12:43:17;;;;;;;4.53;2.92;;;;;;;;;;5022069;28;20030;-68
2024/03/22 12:45:43;;;;;;;4.18;2.95;;;;;;;;;;5023406;28;20096;-68
2024/03/22 12:48:08;;;;;;;13.68;3.22;;;;;;;;;;5024222;28;20051;-68
2024/03/22 12:50:35;;;;;;;14.40;3.42;;;;;;;;;;5020621;28;20416;-68
2024/03/22 12:53:01;;;;;;;4.63;3.00;;;;;;;;;;5025141;28;20026;-68
2024/03/22 12:55:28;;;;;;;7.97;3.75;;;;;;;;;;5022971;28;20247;-68
2024/03/22 12:57:54;;;;;;;7.25;3.25;;;;;;;;;;5023428;28;20021;-68
2024/03/22 13:00:20;;;;;;;8.13;2.90;;;;;;;;;;5028827;28;20218;-68
2024/03/22 13:02:46;;;;;;;3.10;1.80;;;;;;;;;;5008969;28;20527;-68
2024/03/22 13:05:13;;;;;;;2.38;1.60;;;;;;;;;;5016062;28;20029;-68
2024/03/22 13:07:39;;;;;;;2.70;1.40;;;;;;;;;;5025274;28;20021;-68
2024/03/22 13:10:05;;;;;;;5.85;1.77;;;;;;;;;;5028511;28;20041;-68
2024/03/22 13:12:33;;;;;;;4.95;1.70;;;;;;;;;;5020953;28;20478;-68
2024/03/22 13:14:59;;;;;;;4.63;1.90;;;;;;;;;;5019076;28;20483;-68
2024/03/22 13:17:25;;;;;;;2.45;1.42;;;;;;;;;;5027213;28;20041;-68
2024/03/22 13:19:51;;;;;;;2.65;1.35;;;;;;;;;;5037997;28;20382;-68
2024/03/22 13:22:18;;;;;;;2.92;1.80;;;;;;;;;;5029452;28;20030;-68
2024/03/22 13:24:47;;;;;;;2.75;1.63;;;;;;;;;;5029531;28;20021;-68
2024/03/22 13:27:13;;;;;;;4.03;1.88;;;;;;;;;;5028968;28;20065;-68
2024/03/22 13:29:40;;;;;;;4.00;1.92;;;;;;;;;;5029777;28;20104;-68
2024/03/22 13:32:07;;;;;;;2.00;1.60;;;;;;;;;;5028372;28;20061;-68
2024/03/22 13:34:34;;;;;;;7.57;1.70;;;;;;;;;;5035660;28;20021;-68
2024/03/22 13:37:00;;;;;;;5.85;2.30;;;;;;;;;;5028792;28;20031;-68
2024/03/22 13:39:26;;;;;;;3.17;2.35;;;;;;;;;;5029594;28;20108;-68